Time;durP1;ratioP1;P1;durP2;ratioP2;P2;SDS_P1;SDS_P2;PMS_P1;PMS_P2;Temp;Humidity;BMP_temperature;BMP_pressure;BME280_temperature;BME280_humidity;BME280_pressure;Samples;Min_cycle;Max_cycle;Signal;HPM_P1;HPM_P2
2021/10/05 00:02:10;;;;;;;8.07;2.78;;;;;;;19.32;55.89;98991.16;4443028;32;20449;-68
2021/10/05 00:04:36;;;;;;;9.98;2.78;;;;;;;19.64;55.84;98989.13;4444161;32;20069;-68
2021/10/05 00:07:01;;;;;;;19.08;2.80;;;;;;;19.78;56.64;98962.94;4443153;32;20444;-68
2021/10/05 00:09:27;;;;;;;14.23;3.00;;;;;;;20.16;56.18;98943.59;4443059;32;20101;-69
2021/10/05 00:11:53;;;;;;;8.32;2.58;;;;;;;20.20;56.74;98924.06;4444819;32;20203;-69
2021/10/05 00:14:19;;;;;;;10.40;2.12;;;;;;;20.02;55.73;98899.19;4445075;32;20549;-68
2021/10/05 00:16:46;;;;;;;7.68;2.05;;;;;;;19.92;56.30;98900.16;4443155;32;20135;-68
2021/10/05 00:19:12;;;;;;;7.22;2.12;;;;;;;19.93;55.29;98879.63;4444527;32;20145;-69
2021/10/05 00:21:38;;;;;;;4.25;1.50;;;;;;;20.22;54.42;98864.28;4443342;32;20413;-69
2021/10/05 00:24:04;;;;;;;8.98;1.75;;;;;;;20.09;54.55;98900.62;4439189;32;20546;-68
2021/10/05 00:26:29;;;;;;;5.25;1.33;;;;;;;20.01;54.88;98889.09;4444785;32;20131;-69
2021/10/05 00:28:55;;;;;;;6.55;1.42;;;;;;;19.98;55.44;98883.69;4446043;32;20136;-67
2021/10/05 00:31:21;;;;;;;8.48;1.20;;;;;;;19.93;55.43;98876.00;4444490;32;20104;-68
2021/10/05 00:33:47;;;;;;;13.85;1.52;;;;;;;20.04;55.31;98893.69;4443997;32;20525;-67
2021/10/05 00:36:13;;;;;;;5.40;1.23;;;;;;;20.02;56.25;98881.28;4447997;32;20032;-68
2021/10/05 00:38:39;;;;;;;5.30;1.20;;;;;;;19.82;56.62;98834.16;4446167;32;20038;-67
2021/10/05 00:41:23;;;;;;;13.65;1.42;;;;;;;20.30;57.00;98816.59;4445531;32;20215;-67
2021/10/05 00:44:08;;;;;;;5.17;0.97;;;;;;;20.71;57.13;98779.56;4445719;32;20128;-68
2021/10/05 00:46:52;;;;;;;6.68;1.33;;;;;;;20.19;56.67;98810.38;4442682;32;20099;-68
2021/10/05 00:49:38;;;;;;;8.30;1.30;;;;;;;19.82;57.04;98817.03;4443048;32;20070;-67
2021/10/05 00:52:22;;;;;;;9.88;1.23;;;;;;;20.40;56.01;98803.41;4442121;32;20104;-67
2021/10/05 00:55:07;;;;;;;2.27;1.30;;;;;;;20.54;55.75;98789.84;4443164;32;20141;-69
2021/10/05 00:57:52;;;;;;;5.47;1.37;;;;;;;20.31;55.50;98769.56;4441597;32;20495;-68
2021/10/05 01:00:37;;;;;;;4.93;1.08;;;;;;;20.35;54.46;98752.09;4446849;32;20165;-68
2021/10/05 01:03:21;;;;;;;3.10;1.02;;;;;;;20.24;54.74;98740.91;4445415;32;20527;-68
2021/10/05 01:06:05;;;;;;;5.62;1.33;;;;;;;19.75;55.42;98744.25;4440973;32;20470;-69
2021/10/05 01:08:50;;;;;;;4.18;1.20;;;;;;;19.65;55.84;98733.84;4442596;32;20145;-68
2021/10/05 01:11:34;;;;;;;4.60;0.98;;;;;;;19.62;55.67;98743.50;4444798;32;20342;-68
2021/10/05 01:14:18;;;;;;;5.57;1.48;;;;;;;19.48;56.37;98739.84;4443093;32;20397;-67
2021/10/05 01:17:04;;;;;;;3.25;1.02;;;;;;;19.03;57.47;98729.78;4445075;32;20394;-67
2021/10/05 01:19:48;;;;;;;;;;;;;;;19.09;57.97;98731.22;4446249;32;20063;-67
2021/10/05 01:22:33;;;;;;;7.72;1.17;;;;;;;19.78;55.70;98713.84;4445073;32;20016;-67
2021/10/05 01:25:17;;;;;;;4.32;1.12;;;;;;;18.89;58.02;98713.94;4440975;32;20160;-67
2021/10/05 01:28:02;;;;;;;2.70;0.88;;;;;;;19.09;57.14;98701.94;4442120;32;20117;-67
2021/10/05 01:30:47;;;;;;;7.70;1.47;;;;;;;19.08;57.46;98714.66;4445377;32;20112;-67
2021/10/05 01:33:30;;;;;;;4.75;1.30;;;;;;;19.27;57.17;98703.97;4440478;32;20096;-67
2021/10/05 01:36:15;;;;;;;5.47;1.83;;;;;;;19.45;56.42;98700.25;4444602;32;20063;-67
2021/10/05 01:38:59;;;;;;;4.15;1.23;;;;;;;19.57;56.09;98701.56;4442075;32;20118;-67
2021/10/05 01:41:43;;;;;;;7.65;1.30;;;;;;;19.87;55.08;98704.06;4442970;32;20103;-67
2021/10/05 01:44:28;;;;;;;2.70;1.30;;;;;;;19.56;55.62;98688.63;4444301;32;20549;-67
2021/10/05 01:47:12;;;;;;;2.35;1.00;;;;;;;20.30;54.26;98690.16;4446894;32;20106;-67
2021/10/05 01:49:56;;;;;;;3.33;0.82;;;;;;;20.15;53.68;98698.56;4443558;32;20096;-67
2021/10/05 01:52:41;;;;;;;3.40;0.97;;;;;;;20.20;54.17;98692.72;4444520;32;20148;-67
2021/10/05 01:55:25;;;;;;;5.65;1.02;;;;;;;20.63;52.98;98677.94;4446742;32;20187;-67
2021/10/05 01:58:09;;;;;;;3.55;1.00;;;;;;;20.49;53.18;98679.31;4446064;32;20103;-67
2021/10/05 02:00:54;;;;;;;3.60;0.80;;;;;;;20.44;53.07;98675.28;4444652;32;20126;-67
2021/10/05 02:03:38;;;;;;;3.35;1.20;;;;;;;20.85;52.22;98663.84;4441922;32;20088;-67
2021/10/05 02:06:23;;;;;;;3.40;0.82;;;;;;;20.87;51.92;98655.50;4439521;32;20220;-67
2021/10/05 02:09:09;;;;;;;3.17;0.90;;;;;;;20.89;52.05;98661.41;4447841;32;20063;-67
2021/10/05 02:11:53;;;;;;;5.43;0.68;;;;;;;20.60;52.81;98651.25;4445813;32;20085;-67
2021/10/05 02:14:37;;;;;;;4.95;1.00;;;;;;;20.53;52.62;98640.50;4439720;32;20144;-67
2021/10/05 02:17:22;;;;;;;3.53;0.60;;;;;;;20.67;52.03;98632.59;4442689;32;20133;-67
2021/10/05 02:20:07;;;;;;;6.18;0.82;;;;;;;20.67;52.09;98639.09;4443565;32;20450;-67
2021/10/05 02:22:51;;;;;;;1.90;0.73;;;;;;;20.50;52.51;98630.19;4441398;32;20065;-67
2021/10/05 02:25:36;;;;;;;1.08;0.37;;;;;;;20.89;51.63;98627.09;4447532;32;20124;-67
2021/10/05 02:28:20;;;;;;;1.37;0.65;;;;;;;20.65;51.81;98618.12;4446587;32;20087;-67
2021/10/05 02:31:04;;;;;;;1.20;0.50;;;;;;;20.98;51.32;98615.19;4441087;32;20087;-67
2021/10/05 02:33:48;;;;;;;3.30;0.68;;;;;;;21.19;50.91;98604.47;4444655;32;20106;-67
2021/10/05 02:36:32;;;;;;;2.97;0.70;;;;;;;21.19;50.47;98590.16;4442981;32;20423;-67
2021/10/05 02:39:17;;;;;;;2.90;0.60;;;;;;;21.49;50.29;98595.28;4441512;32;20126;-67
2021/10/05 02:42:02;;;;;;;2.85;0.40;;;;;;;21.21;50.73;98583.87;4443735;32;20080;-67
2021/10/05 02:44:46;;;;;;;2.08;1.05;;;;;;;21.59;50.04;98585.59;4440370;32;20142;-67
2021/10/05 02:47:30;;;;;;;0.73;0.37;;;;;;;21.40;49.73;98573.69;4446837;32;20620;-67
2021/10/05 02:50:14;;;;;;;0.77;0.25;;;;;;;21.03;50.59;98545.63;4441847;32;20098;-67
2021/10/05 02:52:58;;;;;;;3.37;0.60;;;;;;;21.07;50.75;98543.19;4445507;32;21445;-67
2021/10/05 02:55:43;;;;;;;1.95;0.55;;;;;;;21.28;50.18;98552.44;4445459;32;20087;-67
2021/10/05 02:58:27;;;;;;;1.48;0.30;;;;;;;21.41;49.95;98532.28;4444754;32;20095;-67
2021/10/05 03:01:11;;;;;;;1.05;0.40;;;;;;;21.70;49.53;98533.72;4447555;32;20128;-67
2021/10/05 03:03:55;;;;;;;3.33;0.45;;;;;;;21.44;50.00;98534.00;4444031;32;20099;-68
2021/10/05 03:06:39;;;;;;;0.93;0.32;;;;;;;21.65;49.52;98531.03;4441319;32;20103;-68
2021/10/05 03:09:24;;;;;;;1.52;0.40;;;;;;;21.52;49.76;98531.97;4436168;32;20117;-68
2021/10/05 03:12:08;;;;;;;4.03;0.57;;;;;;;21.66;49.43;98529.69;4435988;32;20067;-68
2021/10/05 03:14:52;;;;;;;2.53;0.30;;;;;;;21.67;49.09;98528.38;4433042;32;20617;-68
2021/10/05 03:17:37;;;;;;;1.35;0.52;;;;;;;21.72;49.32;98538.88;4436073;32;20112;-68
2021/10/05 03:20:21;;;;;;;1.23;0.53;;;;;;;21.68;49.24;98532.75;4436521;32;20102;-68
2021/10/05 03:23:05;;;;;;;1.30;0.50;;;;;;;21.26;49.48;98534.31;4436561;32;20076;-68
2021/10/05 03:25:49;;;;;;;2.42;0.60;;;;;;;21.10;49.80;98530.63;4435123;32;20165;-68
2021/10/05 03:28:33;;;;;;;1.05;0.40;;;;;;;21.12;49.71;98530.81;4436591;32;20052;-67
2021/10/05 03:31:18;;;;;;;2.37;0.60;;;;;;;20.94;50.06;98536.78;4437015;32;20100;-67
2021/10/05 03:34:03;;;;;;;3.20;0.62;;;;;;;20.97;49.91;98541.41;4434257;32;20108;-67
2021/10/05 03:36:47;;;;;;;0.85;0.35;;;;;;;20.71;50.40;98547.31;4432234;32;20452;-68
2021/10/05 03:39:31;;;;;;;1.10;0.40;;;;;;;20.60;50.16;98548.38;4434487;32;20775;-68
2021/10/05 03:42:16;;;;;;;1.40;0.52;;;;;;;20.73;49.88;98536.84;4434395;32;20519;-68
2021/10/05 03:45:00;;;;;;;0.98;0.50;;;;;;;20.61;50.32;98538.44;4432503;32;20096;-68
2021/10/05 03:47:44;;;;;;;1.20;0.50;;;;;;;20.86;49.38;98538.84;4437392;32;20148;-68
2021/10/05 03:50:28;;;;;;;1.23;0.50;;;;;;;20.88;49.54;98539.03;4433279;32;20052;-68
2021/10/05 03:53:17;;;;;;;3.45;0.70;;;;;;;20.96;48.80;98540.63;4433625;32;20207;-68
2021/10/05 03:56:02;;;;;;;2.30;0.60;;;;;;;20.90;48.93;98536.38;4435140;32;20096;-68
2021/10/05 03:58:46;;;;;;;1.33;0.50;;;;;;;21.06;48.90;98535.94;4435583;32;20073;-68
2021/10/05 04:01:30;;;;;;;2.83;0.57;;;;;;;20.98;48.65;98542.91;4433880;32;20131;-68
2021/10/05 04:04:14;;;;;;;1.80;0.50;;;;;;;21.06;48.36;98543.75;4434017;32;20092;-68
2021/10/05 04:06:58;;;;;;;1.75;0.50;;;;;;;21.08;48.02;98538.97;4433183;32;20584;-68
2021/10/05 04:09:43;;;;;;;0.85;0.40;;;;;;;20.74;48.31;98538.34;4435320;32;20092;-68
2021/10/05 04:12:27;;;;;;;5.70;0.90;;;;;;;20.95;47.40;98544.03;4436588;32;20383;-68
2021/10/05 04:15:12;;;;;;;2.20;0.60;;;;;;;20.82;47.98;98542.03;4436179;32;20100;-68
2021/10/05 04:17:56;;;;;;;2.63;0.50;;;;;;;20.50;48.56;98540.84;4434526;32;20393;-68
2021/10/05 04:20:40;;;;;;;2.53;0.50;;;;;;;20.52;48.19;98547.53;4434469;32;20085;-68
2021/10/05 04:23:25;;;;;;;1.77;0.60;;;;;;;20.44;48.95;98546.72;4432215;32;20590;-68
2021/10/05 04:26:09;;;;;;;1.02;0.60;;;;;;;20.57;48.57;98548.72;4434754;32;20503;-68
2021/10/05 04:28:53;;;;;;;1.75;0.70;;;;;;;20.53;48.58;98554.00;4432156;32;20047;-68
2021/10/05 04:31:39;;;;;;;1.65;0.90;;;;;;;20.63;48.53;98557.91;4435333;32;20122;-68
2021/10/05 04:34:23;;;;;;;;;;;;;;;20.68;48.52;98554.88;4438617;32;20105;-68
2021/10/05 04:37:07;;;;;;;6.20;0.98;;;;;;;21.21;47.66;98549.53;4431494;32;20359;-68
2021/10/05 04:39:52;;;;;;;3.60;0.90;;;;;;;20.90;48.17;98553.53;4432427;32;20390;-68
2021/10/05 04:42:36;;;;;;;3.42;1.40;;;;;;;20.78;48.03;98550.22;4432260;32;20087;-68
2021/10/05 04:45:21;;;;;;;2.58;1.17;;;;;;;20.91;47.89;98557.91;4434487;32;20115;-68
2021/10/05 04:48:07;;;;;;;2.35;1.15;;;;;;;21.05;47.67;98547.94;4438007;32;20111;-68
2021/10/05 04:50:51;;;;;;;4.57;1.17;;;;;;;21.34;47.29;98552.28;4434207;32;20165;-68
2021/10/05 04:53:35;;;;;;;1.77;0.77;;;;;;;20.82;47.85;98547.75;4435014;32;20056;-68
2021/10/05 04:56:20;;;;;;;1.52;0.70;;;;;;;21.03;47.25;98550.59;4433592;32;20055;-68
2021/10/05 04:59:04;;;;;;;7.05;0.95;;;;;;;21.06;47.59;98553.09;4435717;32;20130;-68
2021/10/05 05:01:49;;;;;;;3.60;0.80;;;;;;;20.97;47.47;98550.75;4434498;32;20094;-68
2021/10/05 05:04:33;;;;;;;2.50;1.65;;;;;;;20.80;47.23;98561.84;4434108;32;20117;-68
2021/10/05 05:07:17;;;;;;;3.37;0.90;;;;;;;20.67;47.68;98559.06;4432234;32;20158;-68
2021/10/05 05:10:04;;;;;;;2.13;1.10;;;;;;;20.57;47.72;98548.72;4434722;32;20116;-68
2021/10/05 05:12:48;;;;;;;3.08;0.93;;;;;;;20.50;47.67;98560.84;4433462;32;20159;-68
2021/10/05 05:15:33;;;;;;;4.00;1.00;;;;;;;19.74;48.89;98559.31;4431777;32;20110;-68
2021/10/05 05:18:17;;;;;;;6.05;1.35;;;;;;;19.60;48.90;98557.81;4431725;32;20107;-68
2021/10/05 05:21:01;;;;;;;5.53;1.37;;;;;;;19.15;50.05;98551.50;4430721;32;20067;-68
2021/10/05 05:23:45;;;;;;;4.97;1.65;;;;;;;18.82;50.83;98547.25;4435364;32;20060;-68
2021/10/05 05:26:29;;;;;;;3.80;1.20;;;;;;;18.52;51.54;98546.00;4432564;32;20138;-68
2021/10/05 05:29:13;;;;;;;3.22;1.35;;;;;;;18.52;50.87;98532.53;4434927;32;20107;-68
2021/10/05 05:31:57;;;;;;;3.22;1.30;;;;;;;18.52;51.15;98534.59;4431453;32;20068;-68
2021/10/05 05:34:42;;;;;;;3.53;1.30;;;;;;;18.19;51.40;98540.88;4430852;32;20056;-68
2021/10/05 05:37:08;;;;;;;4.18;1.20;;;;;;;18.42;51.07;98527.81;4432243;32;20129;-68
2021/10/05 05:39:39;;;;;;;2.33;1.42;;;;;;;18.29;51.44;98525.69;4434747;32;20092;-68
2021/10/05 05:42:07;;;;;;;3.08;1.50;;;;;;;18.21;51.37;98529.69;4432599;32;20430;-68
2021/10/05 05:44:33;;;;;;;5.32;1.67;;;;;;;18.15;51.47;98529.81;4433937;32;20429;-68
2021/10/05 05:46:59;;;;;;;4.87;1.98;;;;;;;17.72;52.43;98509.28;4432190;32;20445;-68
2021/10/05 05:49:26;;;;;;;3.22;1.40;;;;;;;17.62;52.61;98517.44;4433055;32;20053;-68
2021/10/05 05:51:51;;;;;;;3.67;1.65;;;;;;;17.76;52.18;98512.59;4432666;32;20395;-68
2021/10/05 05:54:17;;;;;;;3.85;1.73;;;;;;;17.63;52.44;98518.22;4434822;32;20037;-68
2021/10/05 05:56:44;;;;;;;5.25;1.73;;;;;;;17.97;51.77;98515.66;4433205;32;20089;-68
2021/10/05 05:59:09;;;;;;;3.97;1.33;;;;;;;17.69;52.35;98524.59;4434490;32;20108;-68
2021/10/05 06:01:35;;;;;;;4.47;1.30;;;;;;;17.58;52.32;98519.84;4434143;32;20110;-68
2021/10/05 06:04:01;;;;;;;10.35;1.65;;;;;;;17.39;52.73;98523.97;4432364;32;20064;-68
2021/10/05 06:06:29;;;;;;;7.37;1.55;;;;;;;17.85;51.76;98530.03;4433275;32;20055;-68
2021/10/05 06:08:57;;;;;;;3.50;1.65;;;;;;;17.53;52.09;98523.56;4429125;32;20073;-68
2021/10/05 06:11:24;;;;;;;10.68;2.05;;;;;;;17.63;52.05;98521.84;4442290;32;21137;-68
2021/10/05 06:13:50;;;;;;;7.30;1.80;;;;;;;17.71;51.64;98517.06;4440096;32;20049;-69
2021/10/05 06:16:16;;;;;;;9.38;1.90;;;;;;;17.65;51.82;98536.28;4445795;32;20088;-69
2021/10/05 06:18:43;;;;;;;4.78;1.70;;;;;;;17.79;51.62;98535.03;4441374;32;20098;-69
2021/10/05 06:21:10;;;;;;;13.13;3.05;;;;;;;17.92;51.27;98530.72;4443251;32;20033;-69
2021/10/05 06:23:36;;;;;;;5.20;1.62;;;;;;;18.06;50.84;98535.13;4439296;32;20475;-69
2021/10/05 06:26:03;;;;;;;3.15;1.55;;;;;;;17.99;50.46;98552.84;4444126;32;20051;-69
2021/10/05 06:28:29;;;;;;;5.68;1.90;;;;;;;18.12;50.28;98565.03;4442273;32;20842;-69
2021/10/05 06:30:54;;;;;;;4.78;1.33;;;;;;;18.28;49.93;98558.31;4443487;32;20111;-69
2021/10/05 06:33:20;;;;;;;5.20;1.62;;;;;;;18.38;49.80;98558.69;4442714;32;20037;-69
2021/10/05 06:35:46;;;;;;;4.30;1.50;;;;;;;18.31;49.88;98556.47;4445521;32;20106;-69
2021/10/05 06:38:13;;;;;;;4.78;1.62;;;;;;;18.50;49.59;98557.94;4442808;32;20093;-69
2021/10/05 06:40:41;;;;;;;6.40;1.98;;;;;;;18.49;49.63;98544.25;4439762;32;20473;-69
2021/10/05 06:43:07;;;;;;;2.97;1.40;;;;;;;18.60;49.31;98541.19;4433495;32;20140;-68
2021/10/05 06:45:33;;;;;;;5.45;1.65;;;;;;;18.27;49.77;98562.47;4437048;32;20375;-69
2021/10/05 06:47:59;;;;;;;7.03;1.65;;;;;;;18.34;49.40;98552.50;4433243;32;20595;-69
2021/10/05 06:50:27;;;;;;;9.30;1.85;;;;;;;18.73;48.74;98561.16;4434962;32;20746;-69
2021/10/05 06:52:53;;;;;;;6.03;1.48;;;;;;;18.84;48.66;98567.41;4441098;32;20162;-69
2021/10/05 06:55:19;;;;;;;7.35;1.62;;;;;;;18.89;48.36;98562.91;4431591;32;20171;-69
2021/10/05 06:57:45;;;;;;;3.40;1.70;;;;;;;19.03;47.99;98564.44;4439654;32;20135;-69
2021/10/05 07:00:15;;;;;;;5.65;1.75;;;;;;;18.80;48.28;98569.81;4438692;32;20076;-69
2021/10/05 07:02:43;;;;;;;4.20;1.58;;;;;;;19.24;47.60;98568.16;4438056;32;20522;-69
2021/10/05 07:05:10;;;;;;;8.25;1.95;;;;;;;19.30;47.45;98569.59;4419780;32;20100;-69
2021/10/05 07:07:39;;;;;;;5.60;1.50;;;;;;;19.28;47.43;98577.19;4430545;32;20233;-69
2021/10/05 07:10:06;;;;;;;5.30;2.47;;;;;;;19.46;46.97;98587.69;4436272;32;20057;-69
2021/10/05 07:12:31;;;;;;;6.90;2.12;;;;;;;19.35;47.29;98585.84;4435651;32;20156;-68
2021/10/05 07:14:57;;;;;;;4.80;1.70;;;;;;;19.32;47.05;98578.38;4430836;32;21267;-68
2021/10/05 07:17:23;;;;;;;5.18;1.35;;;;;;;19.52;46.76;98585.50;4427237;32;20085;-68
2021/10/05 07:19:49;;;;;;;3.20;1.42;;;;;;;19.63;46.48;98573.81;4435129;32;20595;-69
2021/10/05 07:22:14;;;;;;;5.68;1.40;;;;;;;19.82;46.20;98582.22;4430152;32;20129;-69
2021/10/05 07:24:40;;;;;;;6.80;1.95;;;;;;;19.76;46.01;98591.66;4430764;32;20563;-69
2021/10/05 07:27:06;;;;;;;5.43;1.80;;;;;;;19.87;46.39;98601.28;4426418;32;20085;-69
2021/10/05 07:29:31;;;;;;;3.60;1.45;;;;;;;20.02;46.53;98601.47;4436160;32;20115;-69
2021/10/05 07:31:57;;;;;;;4.32;1.17;;;;;;;20.10;46.34;98605.97;4436861;32;20100;-69
2021/10/05 07:34:23;;;;;;;4.35;2.22;;;;;;;20.30;45.27;98598.75;4432585;32;20497;-69
2021/10/05 07:36:49;;;;;;;8.23;1.98;;;;;;;20.44;45.11;98605.94;4436264;32;20597;-69
2021/10/05 07:39:14;;;;;;;4.45;1.67;;;;;;;20.84;44.72;98604.38;4433850;32;20045;-69
2021/10/05 07:41:43;;;;;;;5.87;1.60;;;;;;;20.94;44.26;98611.91;4438940;32;20392;-68
2021/10/05 07:44:11;;;;;;;5.03;1.85;;;;;;;21.06;44.02;98607.44;4436956;32;20041;-68
2021/10/05 07:46:37;;;;;;;4.22;1.10;;;;;;;21.26;43.65;98623.75;4435054;32;20201;-68
2021/10/05 07:49:04;;;;;;;6.35;1.55;;;;;;;21.33;43.42;98617.31;4433413;32;20132;-69
2021/10/05 07:51:30;;;;;;;6.43;1.77;;;;;;;21.58;42.78;98618.41;4436394;32;20544;-69
2021/10/05 07:53:56;;;;;;;5.43;1.48;;;;;;;21.52;42.22;98617.81;4432822;32;20073;-70
2021/10/05 07:56:22;;;;;;;3.65;1.35;;;;;;;21.45;42.70;98614.91;4433521;32;20130;-69
2021/10/05 07:58:47;;;;;;;7.05;1.10;;;;;;;21.52;42.61;98612.09;4435999;32;20107;-68
2021/10/05 08:01:13;;;;;;;3.90;1.17;;;;;;;21.37;42.39;98622.69;4434410;32;20147;-68
2021/10/05 08:03:39;;;;;;;4.70;1.40;;;;;;;21.38;42.68;98613.53;4431996;32;20076;-68
2021/10/05 08:06:05;;;;;;;4.97;1.92;;;;;;;21.28;43.02;98612.53;4433047;32;20041;-68
2021/10/05 08:08:30;;;;;;;5.05;0.85;;;;;;;21.20;43.15;98602.38;4416528;32;20084;-68
2021/10/05 08:10:56;;;;;;;2.97;1.70;;;;;;;20.76;43.89;98598.59;4426089;32;20158;-68
2021/10/05 08:13:22;;;;;;;3.80;1.33;;;;;;;20.49;44.42;98600.06;4432745;32;20057;-68
2021/10/05 08:15:47;;;;;;;2.25;1.00;;;;;;;20.73;44.59;98605.44;4422512;32;20081;-67
2021/10/05 08:18:13;;;;;;;3.17;1.60;;;;;;;21.09;44.02;98609.16;4423098;32;20677;-69
2021/10/05 08:20:39;;;;;;;3.28;1.42;;;;;;;21.36;43.56;98601.13;4434605;32;20085;-68
2021/10/05 08:23:05;;;;;;;2.97;1.65;;;;;;;21.77;42.33;98595.22;4432927;32;20708;-68
2021/10/05 08:25:32;;;;;;;5.53;1.40;;;;;;;22.43;40.99;98603.81;4434750;32;20514;-68
2021/10/05 08:27:58;;;;;;;2.40;1.55;;;;;;;22.54;40.05;98612.81;4437916;32;20099;-68
2021/10/05 08:30:24;;;;;;;4.93;1.00;;;;;;;22.90;39.36;98612.63;4431720;32;20077;-68
2021/10/05 08:32:50;;;;;;;2.28;0.80;;;;;;;22.66;39.08;98613.22;4432998;32;20042;-67
2021/10/05 08:35:17;;;;;;;1.10;0.50;;;;;;;23.35;38.22;98621.22;4434510;32;20081;-69
2021/10/05 08:37:43;;;;;;;0.80;0.40;;;;;;;24.08;36.54;98620.78;4434418;32;20091;-68
2021/10/05 08:40:12;;;;;;;1.10;0.37;;;;;;;24.38;35.22;98622.72;4434756;32;20391;-67
2021/10/05 08:42:39;;;;;;;1.30;0.55;;;;;;;25.01;35.31;98615.38;4434703;32;20029;-67
2021/10/05 08:45:07;;;;;;;2.10;0.65;;;;;;;25.24;34.79;98631.06;4434903;32;20072;-67
2021/10/05 08:47:33;;;;;;;2.28;0.70;;;;;;;25.37;34.77;98633.66;4435342;32;20118;-67
2021/10/05 08:50:00;;;;;;;2.33;0.77;;;;;;;25.38;34.46;98631.53;4427562;32;20070;-68
2021/10/05 08:52:26;;;;;;;1.92;0.75;;;;;;;25.12;34.62;98637.91;4434310;32;20042;-68
2021/10/05 08:54:52;;;;;;;5.18;0.88;;;;;;;25.19;34.57;98642.84;4429995;32;20409;-68
2021/10/05 08:57:19;;;;;;;2.85;1.00;;;;;;;24.76;34.86;98644.13;4434002;32;20041;-68
2021/10/05 08:59:44;;;;;;;1.75;0.70;;;;;;;25.08;34.35;98638.31;4425097;32;20099;-67
2021/10/05 09:02:13;;;;;;;2.15;1.02;;;;;;;25.71;33.69;98640.78;4435732;32;20099;-67
2021/10/05 09:04:41;;;;;;;6.35;1.70;;;;;;;26.15;32.76;98645.28;4434462;32;20084;-68
2021/10/05 09:07:24;;;;;;;2.80;2.15;;;;;;;26.59;32.10;98645.22;4433159;32;20203;-68
2021/10/05 09:12:32;;;;;;;6.60;3.33;;;;;;;26.79;31.94;98667.81;3967753;32;15315415;-70
2021/10/05 09:15:00;;;;;;;5.72;4.03;;;;;;;26.79;31.94;98667.81;4426798;32;20099;-70
2021/10/05 09:17:28;;;;;;;8.23;4.43;;;;;;;26.32;32.65;98658.87;4425867;32;21278;-68
2021/10/05 09:19:55;;;;;;;7.07;3.58;;;;;;;25.80;33.68;98660.28;4425648;32;20309;-69
2021/10/05 09:22:25;;;;;;;6.22;4.05;;;;;;;25.71;34.46;98666.72;4425720;32;20384;-68
2021/10/05 09:24:54;;;;;;;7.43;4.10;;;;;;;25.85;33.86;98671.53;4426286;32;20113;-68
2021/10/05 09:27:21;;;;;;;5.85;2.80;;;;;;;25.48;34.83;98669.84;4421607;32;20536;-68
2021/10/05 09:29:49;;;;;;;6.12;3.08;;;;;;;25.39;34.98;98673.38;4422667;32;20159;-68
2021/10/05 09:32:19;;;;;;;4.47;2.92;;;;;;;25.25;35.36;98672.88;4426281;32;20134;-68
2021/10/05 09:34:50;;;;;;;3.70;2.70;;;;;;;25.07;35.08;98679.22;4420451;32;20076;-68
2021/10/05 09:37:35;;;;;;;8.55;3.47;;;;;;;25.06;35.30;98675.56;4428023;32;20565;-68
2021/10/05 09:45:24;;;;;;;5.53;4.25;;;;;;;24.51;36.75;98682.84;3967290;32;15047796;-68
2021/10/05 09:47:52;;;;;;;7.07;4.10;;;;;;;24.51;36.75;98682.84;4423145;32;20088;-68
2021/10/05 09:50:28;;;;;;;6.15;4.45;;;;;;;23.88;37.79;98690.75;4423584;32;20093;-68
2021/10/05 09:52:58;;;;;;;9.07;4.30;;;;;;;24.10;37.52;98689.94;4421237;32;20128;-68
2021/10/05 09:55:28;;;;;;;7.82;4.70;;;;;;;24.30;37.30;98688.88;4423221;32;20080;-68
2021/10/05 09:57:56;;;;;;;7.18;4.70;;;;;;;23.81;37.80;98696.53;4422440;32;20069;-68
2021/10/05 10:00:24;;;;;;;7.12;5.15;;;;;;;23.25;39.11;98697.75;4413929;32;20034;-68
2021/10/05 10:02:50;;;;;;;10.32;5.87;;;;;;;23.55;39.07;98703.47;4422939;32;20364;-68
2021/10/05 10:05:20;;;;;;;9.63;5.40;;;;;;;23.55;39.52;98703.47;4410097;32;20085;-68
2021/10/05 10:07:50;;;;;;;8.68;5.87;;;;;;;23.10;40.29;98706.37;4423336;32;20432;-68
2021/10/05 10:10:19;;;;;;;12.48;5.50;;;;;;;23.07;41.31;98713.25;4421338;32;20092;-67
2021/10/05 10:12:48;;;;;;;12.75;5.57;;;;;;;23.04;41.89;98717.25;4425092;32;20060;-69
2021/10/05 10:15:15;;;;;;;7.28;4.87;;;;;;;22.56;42.90;98721.19;4421952;32;20464;-69
2021/10/05 10:17:41;;;;;;;10.15;4.65;;;;;;;22.04;44.01;98711.03;4423026;32;20093;-69
2021/10/05 10:20:19;;;;;;;3.60;2.60;;;;;;;21.52;45.31;98715.13;4422260;32;20076;-68
2021/10/05 10:22:45;;;;;;;6.30;3.90;;;;;;;21.49;45.55;98712.59;4422065;32;20081;-69
2021/10/05 10:25:22;;;;;;;2.85;1.37;;;;;;;21.66;45.92;98716.53;4422434;32;20099;-68
2021/10/05 10:27:48;;;;;;;5.43;2.15;;;;;;;21.61;45.13;98722.41;4424864;32;20491;-68
2021/10/05 10:30:15;;;;;;;5.72;1.48;;;;;;;21.42;46.62;98716.94;4421685;32;20089;-68
2021/10/05 10:32:47;;;;;;;5.78;0.90;;;;;;;21.74;46.39;98712.97;4420210;32;20081;-69
2021/10/05 10:35:13;;;;;;;1.90;0.70;;;;;;;21.72;44.99;98724.94;4423936;32;20300;-68
2021/10/05 10:37:42;;;;;;;0.90;0.50;;;;;;;21.50;44.89;98720.63;4421011;32;20042;-68
2021/10/05 10:40:09;;;;;;;1.75;0.35;;;;;;;21.42;45.09;98714.06;4418845;32;20391;-68
2021/10/05 10:42:34;;;;;;;1.00;0.37;;;;;;;21.28;45.84;98712.66;4417289;32;20114;-69
2021/10/05 10:45:11;;;;;;;16.55;1.40;;;;;;;21.40;45.80;98725.34;4416176;32;20053;-70
2021/10/05 10:47:39;;;;;;;0.82;0.32;;;;;;;21.98;44.50;98721.13;4421578;32;20461;-69
2021/10/05 10:50:07;;;;;;;2.60;0.30;;;;;;;21.97;44.25;98734.69;4417297;32;20092;-68
2021/10/05 10:52:37;;;;;;;4.05;0.50;;;;;;;22.53;43.01;98728.06;4411810;32;20070;-68
2021/10/05 10:55:06;;;;;;;2.50;0.20;;;;;;;23.07;42.30;98736.19;4418437;32;20133;-68
2021/10/05 10:57:37;;;;;;;1.83;0.30;;;;;;;22.82;42.11;98744.56;4412355;32;20497;-68
2021/10/05 11:02:50;;;;;;;1.42;0.30;;;;;;;23.32;40.71;98755.16;3972636;32;15026088;-69
2021/10/05 11:05:21;;;;;;;0.65;0.40;;;;;;;22.54;41.80;98746.78;4428964;32;20080;-69
2021/10/05 11:07:48;;;;;;;0.40;0.30;;;;;;;22.10;42.41;98746.03;4428411;32;20402;-69
2021/10/05 11:10:14;;;;;;;0.50;0.32;;;;;;;22.07;43.19;98760.69;4430776;32;20478;-69
2021/10/05 11:12:50;;;;;;;0.45;0.30;;;;;;;21.53;43.89;98773.09;4428607;32;20103;-69
2021/10/05 11:15:17;;;;;;;0.25;0.22;;;;;;;21.91;43.08;98770.53;4427396;32;20091;-69
2021/10/05 11:17:45;;;;;;;3.03;0.40;;;;;;;20.95;43.94;98762.12;4422990;32;20106;-69
2021/10/05 11:20:11;;;;;;;0.45;0.40;;;;;;;21.25;44.14;98779.56;4427402;32;20087;-69
2021/10/05 11:22:37;;;;;;;0.82;0.30;;;;;;;21.76;43.32;98776.16;4428579;32;20081;-69
2021/10/05 11:25:04;;;;;;;0.77;0.30;;;;;;;22.25;41.89;98791.16;4426285;32;20037;-70
2021/10/05 11:27:30;;;;;;;1.37;0.55;;;;;;;22.37;41.10;98792.38;4426535;32;20082;-69
2021/10/05 11:30:05;;;;;;;1.30;0.25;;;;;;;22.02;42.87;98787.38;4428034;32;20096;-70
2021/10/05 11:32:32;;;;;;;1.70;0.40;;;;;;;22.41;41.07;98787.03;4429449;32;20100;-70
2021/10/05 11:34:59;;;;;;;0.45;0.30;;;;;;;21.78;42.56;98805.00;4426973;32;20092;-70
2021/10/05 11:37:25;;;;;;;1.00;0.30;;;;;;;21.99;42.45;98800.75;4429637;32;20148;-70
2021/10/05 11:39:52;;;;;;;1.23;0.30;;;;;;;22.32;40.93;98799.78;4430391;32;20112;-69
2021/10/05 11:42:21;;;;;;;0.77;0.20;;;;;;;22.38;41.28;98811.87;4427661;32;20103;-69
2021/10/05 11:44:50;;;;;;;0.73;0.20;;;;;;;22.35;41.19;98817.94;4428168;32;20086;-70
2021/10/05 11:47:19;;;;;;;0.80;0.20;;;;;;;22.13;41.74;98815.72;4426601;32;20077;-69
2021/10/05 11:49:47;;;;;;;0.32;0.20;;;;;;;22.44;40.93;98834.63;4424986;32;20846;-69
2021/10/05 11:52:19;;;;;;;1.08;0.40;;;;;;;21.82;40.99;98814.00;4427623;32;20072;-70
2021/10/05 11:54:45;;;;;;;0.88;0.37;;;;;;;22.55;40.28;98831.47;4430002;32;20074;-69
2021/10/05 11:57:15;;;;;;;1.73;0.43;;;;;;;22.69;40.21;98838.56;4431664;32;20144;-69
2021/10/05 11:59:42;;;;;;;0.40;0.20;;;;;;;22.81;38.65;98829.06;4429791;32;20554;-68
2021/10/05 12:02:14;;;;;;;0.50;0.30;;;;;;;22.48;39.50;98835.00;4420817;32;20081;-68
2021/10/05 12:04:43;;;;;;;3.53;0.32;;;;;;;22.22;39.64;98846.72;4422731;32;20629;-68
2021/10/05 12:07:12;;;;;;;0.55;0.30;;;;;;;22.14;40.18;98846.69;4427669;32;20072;-69
2021/10/05 12:09:39;;;;;;;0.30;0.20;;;;;;;22.77;39.05;98868.81;4427938;32;20120;-68
2021/10/05 12:14:54;;;;;;;0.52;0.15;;;;;;;22.35;38.59;98869.53;3964404;32;15023351;-69
2021/10/05 12:17:22;;;;;;;1.12;0.20;;;;;;;22.35;38.59;98869.53;4418665;32;20076;-69
2021/10/05 12:22:29;;;;;;;1.00;0.30;;;;;;;23.17;37.76;98878.50;3976574;32;15034611;-69